This is the latest recevied weather packets stored in our database for station/object K5KHP. If no packets are shown the sender has not sent any weather packets the latest 10 day(s).
| Time | Temp. | Humidity | Pressure | Rain* | Wind** | Luminosity | Snow |
|---|---|---|---|---|---|---|---|
| 1778093371 | 20° C | 70% | 1017.6 hPa | 0 mm | - | 729 W/m² | - |
| 1778093068 | 20° C | 71% | 1017.5 hPa | 0 mm | - | 746 W/m² | - |
| 1778092765 | 19.44° C | 71% | 1017.6 hPa | 0 mm | - | 736 W/m² | - |
| 1778092460 | 19.44° C | 71% | 1017.7 hPa | 0 mm | - | 703 W/m² | - |
| 1778092158 | 20° C | 69% | 1017.9 hPa | 0 mm | - | 689 W/m² | - |
| 1778091855 | 20° C | 69% | 1017.6 hPa | 0 mm | - | 700 W/m² | - |
| 1778091553 | 20° C | 68% | 1018 hPa | 0 mm | - | 664 W/m² | - |
| 1778091250 | 20° C | 68% | 1017.9 hPa | 0 mm | - | 661 W/m² | - |
| 1778090947 | 20° C | 68% | 1017.9 hPa | 0 mm | - | 668 W/m² | - |
| 1778090643 | 19.44° C | 68% | 1017.7 hPa | 0 mm | - | 685 W/m² | - |
| 1778090340 | 20.56° C | 66% | 1017.8 hPa | 0 mm | - | 699 W/m² | - |
| 1778090036 | 20.56° C | 62% | 1017.7 hPa | 0 mm | - | 666 W/m² | - |
| 1778089733 | 20.56° C | 61% | 1017.7 hPa | 0 mm | - | 651 W/m² | - |
| 1778089431 | 20° C | 63% | 1017.8 hPa | 0 mm | - | 652 W/m² | - |
| 1778089128 | 20° C | 62% | 1017.5 hPa | 0 mm | - | 678 W/m² | - |
| 1778088825 | 19.44° C | 64% | 1017.8 hPa | 0 mm | - | 670 W/m² | - |
| 1778088522 | 19.44° C | 66% | 1017.8 hPa | 0 mm | - | 620 W/m² | - |
| 1778088218 | 19.44° C | 65% | 1018 hPa | 0 mm | - | 641 W/m² | - |
| 1778087910 | 19.44° C | 65% | 1017.9 hPa | 0 mm | - | 602 W/m² | - |
| 1778087607 | 18.89° C | 66% | 1018 hPa | 0 mm | - | 565 W/m² | - |
| 1778087305 | 19.44° C | 66% | 1017.7 hPa | 0 mm | - | 537 W/m² | - |
| 1778087000 | 18.89° C | 68% | 1017.9 hPa | 0 mm | - | 534 W/m² | - |
| 1778086700 | 18.33° C | 69% | 1017.8 hPa | 0 mm | - | 525 W/m² | - |
| 1778086397 | 18.33° C | 69% | 1017.9 hPa | 0 mm | - | 520 W/m² | - |
| 1778086088 | 18.33° C | 69% | 1017.6 hPa | 0 mm | - | 483 W/m² | - |
* Rain latest hour (hover to see other rain measurements)
** Current wind speed in m/s (hover to see current wind gust speed)